»·PEaware :: N6593L KAVQ-KBXK

N6593L :: KAVQ-KBXK

FLIGHT INFORMATION

Flight Status: Arrived
Operator: Privately registered:
United States
More flights under this callsign
Pilot: Mark Q. (29803)
Aircraft: PIPER PA-28R-201 ARROW
(P28R)
More flights by this aircraft type
Origin: KAVQ Marana Northwest Regl
United States
Destination: KBXK Buckeye Mun
United States
More flights between these airports :: More routes between these airports
Route: BASER TFD GBN V461
File this flight plan on PilotEdge
Remarks: Alphabet Challenge Arizona
Altitude:
(Current/Filed)
6,500ft
Speed:
(Current/Filed)
125kts
Departed: 11-Oct-20 12:58 PM
Arrived: 11-Oct-20 01:55 PM
Distance/Time
Traveled:
96nm/0:57
Distance/Time
To Go:
Arrived

Flight Plot

Page will automatically refresh every two minutes.

Flight plan parsing failed; only flown route is shown


Map Options




Map Legend


Flown Route
Filed Route
Departure Airport
Arrival Airport
Navaid (VOR, NDB)
Fix

Horizontal Profiles

Position Reports

Time Latitude Longitude Heading Altitude Ground
Speed
11-Oct-20 12:25 32.405682 -111.218674 133 2022ft 0kts
11-Oct-20 12:26 32.405682 -111.218674 133 2022ft 0kts
11-Oct-20 12:27 32.405682 -111.218674 133 2022ft 0kts
11-Oct-20 12:28 32.405682 -111.218674 133 2022ft 0kts
11-Oct-20 12:29 32.405682 -111.218674 133 2022ft 0kts
11-Oct-20 12:30 32.405682 -111.218674 133 2022ft 0kts
11-Oct-20 12:31 32.405682 -111.218674 133 2022ft 0kts
11-Oct-20 12:32 32.405682 -111.218674 133 2022ft 0kts
11-Oct-20 12:33 32.405682 -111.218674 133 2022ft 0kts
11-Oct-20 12:34 32.405682 -111.218674 133 2022ft 0kts
11-Oct-20 12:35 32.405682 -111.218674 133 2022ft 0kts
11-Oct-20 12:36 32.405682 -111.218673 133 2022ft 0kts
11-Oct-20 12:37 32.405682 -111.218673 133 2022ft 0kts
11-Oct-20 12:38 32.405682 -111.218673 133 2022ft 0kts
11-Oct-20 12:39 32.405682 -111.218673 133 2022ft 0kts
11-Oct-20 12:40 32.405682 -111.218673 133 2022ft 0kts
11-Oct-20 12:41 32.405682 -111.218673 133 2022ft 0kts
11-Oct-20 12:42 32.405682 -111.218673 133 2022ft 0kts
11-Oct-20 12:43 32.405682 -111.218673 133 2022ft 0kts
11-Oct-20 12:44 32.405663 -111.218647 124 2022ft 0kts
11-Oct-20 12:45 32.406673 -111.217261 48 2023ft 0kts
11-Oct-20 12:46 32.406931 -111.216941 46 2023ft 1kts
11-Oct-20 12:47 32.407650 -111.216713 48 2023ft 1kts
11-Oct-20 12:48 32.407551 -111.216358 139 2023ft 5kts
11-Oct-20 12:49 32.405585 -111.214233 144 2026ft 12kts
11-Oct-20 12:50 32.404710 -111.213245 323 2026ft 0kts
11-Oct-20 12:51 32.404712 -111.213247 323 2026ft 0kts
11-Oct-20 12:52 32.404712 -111.213247 323 2026ft 0kts
11-Oct-20 12:53 32.404712 -111.213247 323 2026ft 0kts
11-Oct-20 12:54 32.403904 -111.212144 136 2026ft 8kts
11-Oct-20 12:55 32.403627 -111.211338 61 2026ft 0kts
11-Oct-20 12:56 32.404826 -111.211327 317 2026ft 11kts
11-Oct-20 12:57 32.419533 -111.226493 320 2522ft 83kts
11-Oct-20 12:58 32.439529 -111.243008 318 3316ft 89kts
11-Oct-20 12:59 32.459516 -111.260954 316 3892ft 92kts
11-Oct-20 13:00 32.478619 -111.281110 319 4707ft 93kts
11-Oct-20 13:01 32.500041 -111.298716 312 5484ft 94kts
11-Oct-20 13:02 32.521666 -111.316770 322 6202ft 97kts
11-Oct-20 13:03 32.544091 -111.334779 323 6895ft 99kts
11-Oct-20 13:04 32.544761 -111.365610 251 7392ft 105kts
11-Oct-20 13:05 32.543903 -111.406527 275 7232ft 132kts
11-Oct-20 13:06 32.550615 -111.452551 276 6759ft 146kts
11-Oct-20 13:07 32.553737 -111.499758 269 6505ft 139kts
11-Oct-20 13:08 32.553575 -111.543982 269 6510ft 131kts
11-Oct-20 13:09 32.553350 -111.587225 269 6511ft 130kts
11-Oct-20 13:10 32.564519 -111.625862 318 6512ft 132kts
11-Oct-20 13:11 32.594841 -111.650835 325 6514ft 132kts
11-Oct-20 13:12 32.625789 -111.674808 325 6516ft 133kts
11-Oct-20 13:13 32.656947 -111.698658 326 6517ft 133kts
11-Oct-20 13:14 32.688249 -111.722177 326 6517ft 133kts
11-Oct-20 13:15 32.719676 -111.745787 326 6517ft 133kts
11-Oct-20 13:16 32.750926 -111.769262 326 6517ft 133kts
11-Oct-20 13:17 32.782316 -111.792838 326 6517ft 133kts
11-Oct-20 13:18 32.812529 -111.818081 321 6517ft 133kts
11-Oct-20 13:19 32.839190 -111.848538 313 6517ft 133kts
11-Oct-20 13:20 32.865968 -111.878828 318 6517ft 133kts
11-Oct-20 13:22 32.893686 -111.907831 318 6517ft 133kts
11-Oct-20 13:23 32.904310 -111.947900 275 6517ft 132kts
11-Oct-20 13:24 32.907110 -111.991911 270 6491ft 136kts
11-Oct-20 13:25 32.908168 -112.037193 272 6489ft 136kts
11-Oct-20 13:26 32.909537 -112.082485 272 6489ft 136kts
11-Oct-20 13:27 32.910949 -112.127588 272 6483ft 134kts
11-Oct-20 13:28 32.912606 -112.171582 272 6476ft 131kts
11-Oct-20 13:29 32.914376 -112.214284 272 6470ft 128kts
11-Oct-20 13:30 32.916372 -112.258081 272 6463ft 135kts
11-Oct-20 13:31 32.919811 -112.302960 274 6456ft 136kts
11-Oct-20 13:32 32.923603 -112.347785 274 6453ft 136kts
11-Oct-20 13:33 32.927423 -112.392552 274 6453ft 136kts
11-Oct-20 13:34 32.931270 -112.437512 274 6453ft 136kts
11-Oct-20 13:35 32.936151 -112.482234 277 6453ft 136kts
11-Oct-20 13:36 32.942028 -112.526750 277 6452ft 136kts
11-Oct-20 13:37 32.947928 -112.571368 277 6452ft 136kts
11-Oct-20 13:37 32.952853 -112.608563 277 6452ft 136kts
11-Oct-20 13:39 32.958503 -112.660830 275 6453ft 136kts
11-Oct-20 13:39 32.972883 -112.690431 339 6453ft 141kts
11-Oct-20 13:40 33.012829 -112.705172 340 5952ft 156kts
11-Oct-20 13:41 33.054131 -112.720215 340 5416ft 152kts
11-Oct-20 13:42 33.094562 -112.733604 343 4965ft 149kts
11-Oct-20 13:43 33.135662 -112.741310 350 4517ft 149kts
11-Oct-20 13:44 33.176240 -112.746953 350 4356ft 137kts
11-Oct-20 13:45 33.214301 -112.751978 350 4413ft 140kts
11-Oct-20 13:46 33.253170 -112.758969 347 4414ft 142kts
11-Oct-20 13:47 33.292402 -112.767197 347 4415ft 144kts
11-Oct-20 13:48 33.331887 -112.761388 33 4036ft 155kts
11-Oct-20 13:49 33.364132 -112.735364 33 3578ft 130kts
11-Oct-20 13:50 33.393397 -112.711821 34 2601ft 125kts
11-Oct-20 13:51 33.422017 -112.697621 0 1602ft 113kts
11-Oct-20 13:52 33.451295 -112.694722 43 1754ft 100kts
11-Oct-20 13:53 33.440175 -112.685398 193 1299ft 76kts
11-Oct-20 13:54 33.424276 -112.687234 120 1010ft 16kts
11-Oct-20 13:55 33.420852 -112.685352 91 1004ft 0kts
11-Oct-20 13:56 33.419599 -112.683935 94 1002ft 0kts
11-Oct-20 13:57 33.419599 -112.683935 94 1002ft 0kts

Navigation Log

Ident Type
Flight plan parsing failed, navigation log unavailable